createdAt,value
2023-08-23T00:01:23.172Z,18.72
2023-08-23T00:03:48.358Z,18.72
2023-08-23T00:06:17.560Z,18.71
2023-08-23T00:08:46.426Z,18.67
2023-08-23T00:11:15.068Z,18.62
2023-08-23T00:13:45.098Z,18.60
2023-08-23T00:16:13.854Z,18.58
2023-08-23T00:18:43.503Z,18.57
2023-08-23T00:21:12.347Z,18.57
2023-08-23T00:23:41.833Z,18.54
2023-08-23T00:26:13.330Z,18.54
2023-08-23T00:28:43.053Z,18.53
2023-08-23T00:31:12.751Z,18.50
2023-08-23T00:33:42.847Z,18.48
2023-08-23T00:36:11.822Z,18.49
2023-08-23T00:38:41.133Z,18.50
2023-08-23T00:41:10.669Z,18.52
2023-08-23T00:43:39.369Z,18.54
2023-08-23T00:46:09.211Z,18.56
2023-08-23T00:48:38.790Z,18.59
2023-08-23T00:51:09.398Z,18.59
2023-08-23T00:53:38.817Z,18.55
2023-08-23T00:56:08.446Z,18.49
2023-08-23T00:58:38.628Z,18.39
2023-08-23T01:01:07.820Z,18.36
2023-08-23T01:03:36.953Z,18.32
2023-08-23T01:06:32.440Z,18.30
2023-08-23T01:09:44.638Z,18.26
2023-08-23T01:12:37.125Z,18.19
2023-08-23T01:15:12.315Z,18.13
2023-08-23T01:17:44.670Z,18.11
2023-08-23T01:20:13.827Z,18.12
2023-08-23T01:22:54.768Z,18.13
2023-08-23T01:25:23.445Z,18.07
2023-08-23T01:27:56.937Z,18.01
2023-08-23T01:30:26.329Z,17.99
2023-08-23T01:33:03.727Z,18.01
2023-08-23T01:35:38.709Z,18.04
2023-08-23T01:38:08.127Z,18.05
2023-08-23T01:40:37.804Z,18.06
2023-08-23T01:43:06.524Z,18.06
2023-08-23T01:45:35.485Z,18.02
2023-08-23T01:48:05.991Z,17.97
2023-08-23T01:50:35.640Z,17.98
2023-08-23T01:53:05.550Z,18.00
2023-08-23T01:55:35.065Z,18.06
2023-08-23T01:58:05.649Z,18.10
2023-08-23T02:00:34.722Z,18.13
2023-08-23T02:03:06.249Z,18.17
2023-08-23T02:05:35.161Z,18.19
2023-08-23T02:08:04.372Z,18.22
2023-08-23T02:10:34.866Z,18.24
2023-08-23T02:13:06.222Z,18.26
2023-08-23T02:15:35.440Z,18.28
2023-08-23T02:18:06.323Z,18.29
2023-08-23T02:20:36.181Z,18.31
2023-08-23T02:23:05.794Z,18.35
2023-08-23T02:25:34.948Z,18.34
2023-08-23T02:28:05.577Z,18.35
2023-08-23T02:30:34.232Z,18.34
2023-08-23T02:33:04.738Z,18.35
2023-08-23T02:35:34.391Z,18.35
2023-08-23T02:38:03.282Z,18.35
2023-08-23T02:40:33.284Z,18.36
2023-08-23T02:43:03.597Z,18.39
2023-08-23T02:45:34.478Z,18.38
2023-08-23T02:48:05.012Z,18.37
2023-08-23T02:50:34.282Z,18.34
2023-08-23T02:53:03.465Z,18.31
2023-08-23T02:55:37.756Z,18.29
2023-08-23T02:58:07.854Z,18.29
2023-08-23T03:00:37.597Z,18.25
2023-08-23T03:03:06.965Z,18.19
2023-08-23T03:05:36.182Z,18.16
2023-08-23T03:08:05.403Z,18.15
2023-08-23T03:10:35.191Z,18.15
2023-08-23T03:13:05.844Z,18.14
2023-08-23T03:15:35.499Z,18.13
2023-08-23T03:18:05.266Z,18.14
2023-08-23T03:20:35.315Z,18.14
2023-08-23T03:23:06.775Z,18.16
2023-08-23T03:25:36.302Z,18.18
2023-08-23T03:28:05.814Z,18.18
2023-08-23T03:30:34.574Z,18.15
2023-08-23T03:33:04.085Z,18.13
2023-08-23T03:35:34.016Z,18.09
2023-08-23T03:38:04.318Z,18.03
2023-08-23T03:40:40.485Z,18.01
2023-08-23T03:43:10.060Z,18.00
2023-08-23T03:45:49.878Z,18.01
2023-08-23T03:48:24.593Z,18.00
2023-08-23T03:50:53.869Z,17.97
2023-08-23T03:53:24.521Z,17.96
2023-08-23T03:55:55.688Z,17.95
2023-08-23T03:58:25.011Z,17.99
2023-08-23T04:00:54.813Z,18.01
2023-08-23T04:03:25.926Z,18.06
2023-08-23T04:05:54.913Z,18.09
2023-08-23T04:08:24.233Z,18.14
2023-08-23T04:10:53.636Z,18.17
2023-08-23T04:13:24.151Z,18.20
2023-08-23T04:15:53.415Z,18.25
2023-08-23T04:18:22.700Z,18.30
2023-08-23T04:21:01.457Z,18.36
2023-08-23T04:23:31.320Z,18.41
2023-08-23T04:26:00.898Z,18.47
2023-08-23T04:28:30.411Z,18.50
2023-08-23T04:31:04.014Z,18.55
2023-08-23T04:33:37.053Z,18.65
2023-08-23T04:36:07.035Z,18.77
2023-08-23T04:38:35.897Z,18.87
2023-08-23T04:41:05.798Z,18.97
2023-08-23T04:43:36.511Z,19.06
2023-08-23T04:46:07.989Z,19.14
2023-08-23T04:48:37.818Z,19.24
2023-08-23T04:51:10.398Z,19.31
2023-08-23T04:53:39.756Z,19.39
2023-08-23T04:56:09.410Z,19.47
2023-08-23T04:58:39.629Z,19.56
2023-08-23T05:01:09.177Z,19.63
2023-08-23T05:03:40.028Z,19.69
2023-08-23T05:06:10.330Z,19.74
2023-08-23T05:08:40.549Z,19.78
2023-08-23T05:11:15.213Z,19.83
2023-08-23T05:13:44.872Z,19.91
2023-08-23T05:16:14.295Z,19.97
2023-08-23T05:18:43.874Z,20.03
2023-08-23T05:21:35.322Z,20.08
2023-08-23T05:24:05.046Z,20.12
2023-08-23T05:26:35.322Z,20.18
2023-08-23T05:29:04.547Z,20.22
2023-08-23T05:31:35.127Z,20.27
2023-08-23T05:34:04.398Z,20.34
2023-08-23T05:36:34.361Z,20.40
2023-08-23T05:39:04.433Z,20.46
2023-08-23T05:41:33.739Z,20.56
2023-08-23T05:44:03.042Z,20.63
2023-08-23T05:46:32.413Z,20.69
2023-08-23T05:49:03.122Z,20.78
2023-08-23T05:51:33.191Z,20.88
2023-08-23T05:54:04.069Z,20.99
2023-08-23T05:56:33.366Z,21.07
2023-08-23T05:59:02.869Z,21.16
2023-08-23T06:01:32.316Z,21.29
2023-08-23T06:04:01.774Z,21.39
2023-08-23T06:06:31.800Z,21.48
2023-08-23T06:09:04.067Z,21.58
2023-08-23T06:11:33.810Z,21.67
2023-08-23T06:14:22.039Z,21.74
2023-08-23T06:16:52.619Z,21.81
2023-08-23T06:19:22.445Z,21.93
2023-08-23T06:21:51.702Z,22.02
2023-08-23T06:24:21.540Z,22.11
2023-08-23T06:26:51.471Z,22.17
2023-08-23T06:29:21.702Z,22.23
2023-08-23T06:31:51.725Z,22.27
2023-08-23T06:34:22.563Z,22.29
2023-08-23T06:36:52.144Z,22.31
2023-08-23T06:39:32.757Z,22.28
2023-08-23T06:41:54.283Z,22.31
2023-08-23T06:44:23.876Z,22.32
2023-08-23T06:46:52.881Z,22.31
2023-08-23T06:49:22.709Z,22.29
2023-08-23T06:51:52.202Z,22.28
2023-08-23T06:54:22.398Z,22.30
2023-08-23T06:56:50.929Z,22.37
2023-08-23T06:59:21.457Z,22.50
2023-08-23T07:01:50.391Z,22.71
2023-08-23T07:04:20.567Z,23.04
2023-08-23T07:06:49.364Z,23.50
2023-08-23T07:09:18.513Z,23.97
2023-08-23T07:11:48.717Z,24.38
2023-08-23T07:14:17.642Z,24.83
2023-08-23T07:16:46.263Z,25.30
2023-08-23T07:19:15.515Z,25.69
2023-08-23T07:21:45.031Z,26.09
2023-08-23T07:24:14.746Z,26.41
2023-08-23T07:26:45.462Z,26.67
2023-08-23T07:29:16.160Z,26.88
2023-08-23T07:31:46.688Z,27.10
2023-08-23T07:34:17.345Z,27.32
2023-08-23T07:36:46.266Z,27.51
2023-08-23T07:39:16.351Z,27.73
2023-08-23T07:41:46.462Z,27.86
2023-08-23T07:44:15.171Z,27.94
2023-08-23T07:46:44.513Z,28.10
2023-08-23T07:49:15.653Z,28.21
2023-08-23T07:51:45.255Z,28.22
2023-08-23T07:54:15.014Z,28.25
2023-08-23T07:56:45.074Z,28.28
2023-08-23T07:59:14.497Z,28.45
2023-08-23T08:01:44.642Z,28.70
2023-08-23T08:04:14.890Z,28.90
2023-08-23T08:06:44.424Z,28.93
2023-08-23T08:09:14.802Z,28.96
2023-08-23T08:11:44.683Z,28.98
2023-08-23T08:14:15.209Z,28.87
2023-08-23T08:16:45.935Z,28.62
2023-08-23T08:19:14.652Z,28.41
2023-08-23T08:21:45.699Z,28.31
2023-08-23T08:24:15.785Z,28.23
2023-08-23T08:26:44.447Z,28.14
2023-08-23T08:29:14.006Z,28.09
2023-08-23T08:31:42.694Z,28.18
2023-08-23T08:34:11.267Z,28.03
2023-08-23T08:36:41.517Z,28.04
2023-08-23T08:39:10.401Z,28.08
2023-08-23T08:41:41.807Z,28.01
2023-08-23T08:44:12.334Z,28.08
2023-08-23T08:46:43.019Z,28.22
2023-08-23T08:49:12.514Z,28.49
2023-08-23T08:51:42.852Z,28.70
2023-08-23T08:54:12.123Z,28.61
2023-08-23T08:56:41.311Z,28.49
2023-08-23T08:59:11.096Z,28.48
2023-08-23T09:01:40.113Z,28.41
2023-08-23T09:04:09.262Z,28.23
2023-08-23T09:06:38.358Z,28.04
2023-08-23T09:09:08.403Z,27.90
2023-08-23T09:11:37.824Z,27.81
2023-08-23T09:14:21.623Z,27.79
2023-08-23T09:16:50.477Z,27.75
2023-08-23T09:19:20.273Z,27.72
2023-08-23T09:21:52.317Z,27.62
2023-08-23T09:24:22.219Z,27.17
2023-08-23T09:26:50.980Z,27.17
2023-08-23T09:29:20.602Z,27.01
2023-08-23T09:31:49.740Z,26.92
2023-08-23T09:34:18.977Z,26.78
2023-08-23T09:36:48.514Z,26.74
2023-08-23T09:39:19.219Z,26.77
2023-08-23T09:42:00.724Z,26.77
2023-08-23T09:44:21.137Z,26.74
2023-08-23T09:46:50.319Z,26.70
2023-08-23T09:49:19.114Z,26.64
2023-08-23T09:51:49.255Z,26.56
2023-08-23T09:54:45.920Z,26.58
2023-08-23T09:57:09.206Z,26.57
2023-08-23T09:59:38.947Z,26.59
2023-08-23T10:02:07.682Z,26.68
2023-08-23T10:04:39.120Z,26.62
2023-08-23T10:07:09.090Z,26.56
2023-08-23T10:09:38.297Z,26.54
2023-08-23T10:12:09.235Z,26.55
2023-08-23T10:14:50.343Z,26.62
2023-08-23T10:17:20.976Z,26.61
2023-08-23T10:19:50.906Z,26.64
2023-08-23T10:22:20.687Z,26.64
2023-08-23T10:24:51.099Z,26.61
2023-08-23T10:27:21.476Z,26.64
2023-08-23T10:29:51.889Z,26.72
2023-08-23T10:32:21.138Z,26.81
2023-08-23T10:34:50.956Z,26.78
2023-08-23T10:37:26.365Z,26.75
2023-08-23T10:40:02.778Z,26.70
2023-08-23T10:42:32.633Z,26.67
2023-08-23T10:45:05.380Z,26.62
2023-08-23T10:47:38.257Z,26.60
2023-08-23T10:50:08.485Z,26.59
2023-08-23T10:52:38.747Z,26.60
2023-08-23T10:55:08.895Z,26.59
2023-08-23T10:57:37.836Z,26.60
2023-08-23T11:00:08.482Z,26.59
2023-08-23T11:02:38.394Z,26.52
2023-08-23T11:05:09.010Z,26.57
2023-08-23T11:07:38.154Z,26.62
2023-08-23T11:10:10.344Z,26.64
2023-08-23T11:12:39.903Z,26.65
2023-08-23T11:15:09.897Z,26.66
2023-08-23T11:17:39.886Z,26.67
2023-08-23T11:20:11.268Z,26.69
2023-08-23T11:22:41.180Z,26.71
2023-08-23T11:25:10.768Z,26.78
2023-08-23T11:27:40.220Z,26.88
2023-08-23T11:30:11.357Z,26.91
2023-08-23T11:32:39.891Z,26.92
2023-08-23T11:35:09.995Z,26.89
2023-08-23T11:37:38.615Z,26.89
2023-08-23T11:40:10.951Z,26.88
2023-08-23T11:42:40.755Z,26.88
2023-08-23T11:45:11.625Z,26.88
2023-08-23T11:47:41.575Z,26.91
2023-08-23T11:50:11.743Z,26.95
2023-08-23T11:52:42.259Z,26.99
2023-08-23T11:55:11.715Z,26.99
2023-08-23T11:57:40.354Z,27.03
2023-08-23T12:00:11.292Z,27.05
2023-08-23T12:02:40.866Z,27.07
2023-08-23T12:05:14.649Z,27.11
2023-08-23T12:07:44.879Z,27.13
2023-08-23T12:10:13.837Z,27.19
2023-08-23T12:12:43.243Z,27.17
2023-08-23T12:15:12.367Z,27.13
2023-08-23T12:17:42.520Z,27.05
2023-08-23T12:20:12.787Z,27.01
2023-08-23T12:22:47.591Z,26.99
2023-08-23T12:25:17.754Z,27.03
2023-08-23T12:27:48.137Z,27.11
2023-08-23T12:30:19.284Z,27.10
2023-08-23T12:32:48.194Z,27.09
2023-08-23T12:35:16.961Z,27.10
2023-08-23T12:37:46.923Z,27.14
2023-08-23T12:40:17.094Z,27.22
2023-08-23T12:42:46.256Z,27.29
2023-08-23T12:45:15.794Z,27.35
2023-08-23T12:47:44.784Z,27.28
2023-08-23T12:50:14.353Z,27.19
2023-08-23T12:52:43.576Z,27.09
2023-08-23T12:55:13.072Z,27.02
2023-08-23T12:57:42.230Z,26.95
2023-08-23T13:00:29.146Z,26.91
2023-08-23T13:02:45.164Z,26.88
2023-08-23T13:05:14.756Z,26.81
2023-08-23T13:07:43.218Z,26.73
2023-08-23T13:10:14.120Z,26.70
2023-08-23T13:12:44.979Z,26.67
2023-08-23T13:15:15.090Z,26.66
2023-08-23T13:17:44.782Z,26.66
2023-08-23T13:20:13.688Z,26.63
2023-08-23T13:22:42.430Z,26.62
2023-08-23T13:25:12.385Z,26.53
2023-08-23T13:27:41.416Z,26.47
2023-08-23T13:30:12.119Z,26.44
2023-08-23T13:32:41.372Z,26.39
2023-08-23T13:35:10.659Z,26.35
2023-08-23T13:37:39.312Z,26.30
2023-08-23T13:40:12.476Z,26.28
2023-08-23T13:42:42.875Z,26.27
2023-08-23T13:45:12.557Z,26.25
2023-08-23T13:47:41.679Z,26.23
2023-08-23T13:50:12.267Z,26.22
2023-08-23T13:52:41.074Z,26.22
2023-08-23T13:55:10.974Z,26.21
2023-08-23T13:57:39.884Z,26.22
2023-08-23T14:00:09.780Z,26.27
2023-08-23T14:02:38.443Z,26.31
2023-08-23T14:05:08.888Z,26.33
2023-08-23T14:07:38.930Z,26.35
2023-08-23T14:10:09.204Z,26.37
2023-08-23T14:12:37.899Z,26.39
2023-08-23T14:15:08.223Z,26.45
2023-08-23T14:17:36.826Z,26.51
2023-08-23T14:20:09.009Z,26.49
2023-08-23T14:22:38.831Z,26.48
2023-08-23T14:25:09.367Z,26.49
2023-08-23T14:27:39.016Z,26.52
2023-08-23T14:30:10.794Z,26.58
2023-08-23T14:32:39.623Z,26.63
2023-08-23T14:35:10.898Z,26.65
2023-08-23T14:37:39.962Z,26.68
2023-08-23T14:40:12.522Z,26.67
2023-08-23T14:42:43.481Z,26.69
2023-08-23T14:45:13.419Z,26.71
2023-08-23T14:47:42.358Z,26.72
2023-08-23T14:50:11.436Z,26.75
2023-08-23T14:52:41.611Z,26.78
2023-08-23T14:55:13.573Z,26.80
2023-08-23T14:57:44.371Z,26.77
2023-08-23T15:00:15.189Z,26.76
2023-08-23T15:02:44.433Z,26.73
2023-08-23T15:05:13.664Z,26.73
2023-08-23T15:07:43.230Z,26.70
2023-08-23T15:10:12.555Z,26.67
2023-08-23T15:12:45.906Z,26.64
2023-08-23T15:15:17.162Z,26.63
2023-08-23T15:17:47.315Z,26.65
2023-08-23T15:20:16.965Z,26.72
2023-08-23T15:22:47.293Z,26.76
2023-08-23T15:25:16.405Z,26.78
2023-08-23T15:27:45.502Z,26.70
2023-08-23T15:30:14.730Z,26.62
2023-08-23T15:32:45.366Z,26.57
2023-08-23T15:35:14.219Z,26.51
2023-08-23T15:37:43.961Z,26.48
2023-08-23T15:40:13.041Z,26.43
2023-08-23T15:42:42.826Z,26.36
2023-08-23T15:45:12.233Z,26.31
2023-08-23T15:47:41.218Z,26.27
2023-08-23T15:50:11.110Z,26.20
2023-08-23T15:52:40.064Z,26.16
2023-08-23T15:55:10.889Z,26.12
2023-08-23T15:57:41.455Z,26.08
2023-08-23T16:00:12.838Z,26.02
2023-08-23T16:02:41.928Z,25.97
2023-08-23T16:05:11.805Z,25.93
2023-08-23T16:07:42.354Z,25.89
2023-08-23T16:10:12.797Z,25.87
2023-08-23T16:12:41.676Z,25.82
2023-08-23T16:15:12.429Z,25.80
2023-08-23T16:17:42.368Z,25.77
2023-08-23T16:20:11.987Z,25.76
2023-08-23T16:22:41.435Z,25.72
2023-08-23T16:25:11.675Z,25.68
2023-08-23T16:27:40.303Z,25.65
2023-08-23T16:30:11.017Z,25.61
2023-08-23T16:32:40.824Z,25.58
2023-08-23T16:35:11.092Z,25.56
2023-08-23T16:37:41.840Z,25.52
2023-08-23T16:40:12.522Z,25.49
2023-08-23T16:42:45.685Z,25.46
2023-08-23T16:45:15.924Z,25.43
2023-08-23T16:47:45.491Z,25.39
2023-08-23T16:50:14.373Z,25.37
2023-08-23T16:52:43.339Z,25.33
2023-08-23T16:55:12.969Z,25.30
2023-08-23T16:57:42.448Z,25.27
2023-08-23T17:00:14.305Z,25.24
2023-08-23T17:02:45.640Z,25.23
2023-08-23T17:05:15.396Z,25.20
2023-08-23T17:07:44.618Z,25.17
2023-08-23T17:10:14.121Z,25.13
2023-08-23T17:12:43.332Z,25.07
2023-08-23T17:15:13.883Z,25.04
2023-08-23T17:17:43.676Z,25.00
2023-08-23T17:20:14.457Z,24.95
2023-08-23T17:22:44.480Z,24.93
2023-08-23T17:25:14.347Z,24.89
2023-08-23T17:27:44.036Z,24.87
2023-08-23T17:30:14.555Z,24.85
2023-08-23T17:32:44.634Z,24.81
2023-08-23T17:35:13.893Z,24.77
2023-08-23T17:37:44.152Z,24.74
2023-08-23T17:40:14.822Z,24.73
2023-08-23T17:42:45.102Z,24.69
2023-08-23T17:45:14.984Z,24.68
2023-08-23T17:47:43.892Z,24.66
2023-08-23T17:50:13.163Z,24.63
2023-08-23T17:52:42.363Z,24.62
2023-08-23T17:55:13.218Z,24.58
2023-08-23T17:57:42.578Z,24.53
2023-08-23T18:00:21.394Z,24.48
2023-08-23T18:02:53.501Z,24.46
2023-08-23T18:05:22.954Z,24.39
2023-08-23T18:07:52.880Z,24.36
2023-08-23T18:10:21.329Z,24.32
2023-08-23T18:12:51.918Z,24.28
2023-08-23T18:15:21.577Z,24.26
2023-08-23T18:17:51.634Z,24.22
2023-08-23T18:20:20.925Z,24.18
2023-08-23T18:22:50.428Z,24.17
2023-08-23T18:25:20.269Z,24.16
2023-08-23T18:27:50.726Z,24.15
2023-08-23T18:30:20.575Z,24.13
2023-08-23T18:32:50.057Z,24.09
2023-08-23T18:35:21.093Z,24.05
2023-08-23T18:37:50.272Z,24.03
2023-08-23T18:40:20.990Z,24.01
2023-08-23T18:42:50.989Z,23.96
2023-08-23T18:45:20.848Z,23.91
2023-08-23T18:47:50.401Z,23.88
2023-08-23T18:50:20.269Z,23.81
2023-08-23T18:52:51.525Z,23.73
2023-08-23T18:55:20.810Z,23.65
2023-08-23T18:57:49.637Z,23.56
2023-08-23T19:00:19.618Z,23.47
2023-08-23T19:02:48.615Z,23.40
2023-08-23T19:05:19.853Z,23.36
2023-08-23T19:07:50.613Z,23.32
2023-08-23T19:10:19.888Z,23.28
2023-08-23T19:12:48.908Z,23.22
2023-08-23T19:15:18.917Z,23.15
2023-08-23T19:17:49.655Z,23.09
2023-08-23T19:20:18.332Z,23.00
2023-08-23T19:22:47.949Z,22.95
2023-08-23T19:25:18.070Z,22.90
2023-08-23T19:27:49.096Z,22.87
2023-08-23T19:30:21.611Z,22.83
2023-08-23T19:32:51.784Z,22.83
2023-08-23T19:35:20.879Z,22.84
2023-08-23T19:37:51.516Z,22.83
2023-08-23T19:40:20.650Z,22.83
2023-08-23T19:42:50.445Z,22.82
2023-08-23T19:45:19.768Z,22.82
2023-08-23T19:47:49.842Z,22.80
2023-08-23T19:50:19.873Z,22.79
2023-08-23T19:52:50.162Z,22.75
2023-08-23T19:55:19.939Z,22.72
2023-08-23T19:57:49.009Z,22.68
2023-08-23T20:00:18.942Z,22.56
2023-08-23T20:02:49.943Z,22.45
2023-08-23T20:05:20.182Z,22.37
2023-08-23T20:07:49.801Z,22.27
2023-08-23T20:10:19.922Z,22.25
2023-08-23T20:12:49.053Z,22.21
2023-08-23T20:15:18.475Z,22.13
2023-08-23T20:17:47.819Z,22.02
2023-08-23T20:20:18.075Z,21.95
2023-08-23T20:22:47.354Z,21.87
2023-08-23T20:25:18.202Z,21.76
2023-08-23T20:27:48.596Z,21.72
2023-08-23T20:30:18.303Z,21.67
2023-08-23T20:32:49.656Z,21.62
2023-08-23T20:35:18.625Z,21.59
2023-08-23T20:37:50.742Z,21.55
2023-08-23T20:40:21.581Z,21.51
2023-08-23T20:42:51.146Z,21.44
2023-08-23T20:45:22.943Z,21.40
2023-08-23T20:47:52.453Z,21.38
2023-08-23T20:50:22.579Z,21.36
2023-08-23T20:52:52.893Z,21.31
2023-08-23T20:55:22.000Z,21.27
2023-08-23T20:57:53.552Z,21.24
2023-08-23T21:00:23.540Z,21.20
2023-08-23T21:02:53.247Z,21.14
2023-08-23T21:05:22.722Z,21.08
2023-08-23T21:07:52.835Z,21.04
2023-08-23T21:10:22.896Z,20.99
2023-08-23T21:12:52.334Z,20.89
2023-08-23T21:15:22.150Z,20.84
2023-08-23T21:17:52.163Z,20.78
2023-08-23T21:20:21.458Z,20.72
2023-08-23T21:22:50.570Z,20.69
2023-08-23T21:25:20.635Z,20.65
2023-08-23T21:27:50.638Z,20.62
2023-08-23T21:30:20.511Z,20.57
2023-08-23T21:32:49.476Z,20.55
2023-08-23T21:35:18.473Z,20.52
2023-08-23T21:37:48.364Z,20.51
2023-08-23T21:40:18.505Z,20.51
2023-08-23T21:42:48.627Z,20.46
2023-08-23T21:45:18.865Z,20.37
2023-08-23T21:47:47.490Z,20.33
2023-08-23T21:50:16.956Z,20.28
2023-08-23T21:52:46.113Z,20.25
2023-08-23T21:55:16.031Z,20.23
2023-08-23T21:57:45.575Z,20.17
2023-08-23T22:00:15.804Z,20.13
2023-08-23T22:02:44.550Z,20.13
2023-08-23T22:05:14.681Z,20.11
2023-08-23T22:07:44.591Z,20.08
2023-08-23T22:10:13.777Z,20.00
2023-08-23T22:12:42.661Z,19.92
2023-08-23T22:15:12.728Z,19.94
2023-08-23T22:17:43.050Z,19.90
2023-08-23T22:20:15.285Z,19.86
2023-08-23T22:22:44.239Z,19.80
2023-08-23T22:25:13.932Z,19.73
2023-08-23T22:27:42.908Z,19.67
2023-08-23T22:30:12.769Z,19.64
2023-08-23T22:32:42.313Z,19.62
2023-08-23T22:35:12.656Z,19.59
2023-08-23T22:37:42.259Z,19.53
2023-08-23T22:40:12.462Z,19.45
2023-08-23T22:42:41.707Z,19.42
2023-08-23T22:45:11.390Z,19.38
2023-08-23T22:47:40.982Z,19.31
2023-08-23T22:50:10.960Z,19.29
2023-08-23T22:52:39.481Z,19.29
2023-08-23T22:55:10.534Z,19.27
2023-08-23T22:57:41.955Z,19.27
2023-08-23T23:00:11.813Z,19.23
2023-08-23T23:02:44.052Z,19.20
2023-08-23T23:05:14.295Z,19.19
2023-08-23T23:07:44.913Z,19.18
2023-08-23T23:10:15.128Z,19.19
2023-08-23T23:12:44.204Z,19.15
2023-08-23T23:15:16.665Z,19.15
2023-08-23T23:17:47.653Z,19.10
2023-08-23T23:20:17.493Z,19.08
2023-08-23T23:22:47.129Z,19.09
2023-08-23T23:25:16.211Z,19.08
2023-08-23T23:27:45.682Z,19.04
2023-08-23T23:30:16.698Z,18.99
2023-08-23T23:32:46.764Z,18.93
2023-08-23T23:35:16.546Z,18.92
2023-08-23T23:37:46.766Z,18.91
2023-08-23T23:40:16.238Z,18.93
2023-08-23T23:42:45.233Z,18.92
2023-08-23T23:45:15.739Z,18.88
2023-08-23T23:47:44.732Z,18.88
2023-08-23T23:50:13.308Z,18.88
2023-08-23T23:52:42.629Z,18.85
2023-08-23T23:55:11.364Z,18.82
2023-08-23T23:57:40.219Z,18.81
